sensor_id;sensor_type;location;lat;lon;timestamp;temperature;humidity
11569;DHT22;5840;46.894;15.542;2023-03-23T00:01:06;9.60;99.90
11569;DHT22;5840;46.894;15.542;2023-03-23T00:03:35;9.60;99.90
11569;DHT22;5840;46.894;15.542;2023-03-23T00:06:05;9.60;99.90
11569;DHT22;5840;46.894;15.542;2023-03-23T00:08:34;9.50;99.90
11569;DHT22;5840;46.894;15.542;2023-03-23T00:11:03;9.50;99.90
11569;DHT22;5840;46.894;15.542;2023-03-23T00:13:30;9.40;99.90
11569;DHT22;5840;46.894;15.542;2023-03-23T00:15:58;9.40;99.90
11569;DHT22;5840;46.894;15.542;2023-03-23T00:18:26;9.40;99.90
11569;DHT22;5840;46.894;15.542;2023-03-23T00:20:54;9.30;99.90
11569;DHT22;5840;46.894;15.542;2023-03-23T00:23:24;9.30;99.90
11569;DHT22;5840;46.894;15.542;2023-03-23T00:25:53;9.30;99.90
11569;DHT22;5840;46.894;15.542;2023-03-23T00:28:22;9.20;99.90
11569;DHT22;5840;46.894;15.542;2023-03-23T00:30:55;9.20;99.90
11569;DHT22;5840;46.894;15.542;2023-03-23T00:33:23;9.10;99.90
11569;DHT22;5840;46.894;15.542;2023-03-23T00:35:51;9.00;99.90
11569;DHT22;5840;46.894;15.542;2023-03-23T00:38:20;9.00;99.90
11569;DHT22;5840;46.894;15.542;2023-03-23T00:40:49;9.00;99.90
11569;DHT22;5840;46.894;15.542;2023-03-23T00:43:17;9.00;99.90
11569;DHT22;5840;46.894;15.542;2023-03-23T00:45:45;9.00;99.90
11569;DHT22;5840;46.894;15.542;2023-03-23T00:48:18;9.00;99.90
11569;DHT22;5840;46.894;15.542;2023-03-23T00:50:45;9.00;99.90
11569;DHT22;5840;46.894;15.542;2023-03-23T00:53:12;9.00;99.90
11569;DHT22;5840;46.894;15.542;2023-03-23T00:55:40;9.00;99.90
11569;DHT22;5840;46.894;15.542;2023-03-23T00:58:09;8.90;99.90
11569;DHT22;5840;46.894;15.542;2023-03-23T01:00:36;8.90;99.90
11569;DHT22;5840;46.894;15.542;2023-03-23T01:03:04;8.90;99.90
11569;DHT22;5840;46.894;15.542;2023-03-23T01:05:34;8.90;99.90
11569;DHT22;5840;46.894;15.542;2023-03-23T01:08:01;8.80;99.90
11569;DHT22;5840;46.894;15.542;2023-03-23T01:10:28;8.80;99.90
11569;DHT22;5840;46.894;15.542;2023-03-23T01:12:58;8.80;99.90
11569;DHT22;5840;46.894;15.542;2023-03-23T01:15:27;8.70;99.90
11569;DHT22;5840;46.894;15.542;2023-03-23T01:17:55;8.70;99.90
11569;DHT22;5840;46.894;15.542;2023-03-23T01:20:23;8.60;99.90
11569;DHT22;5840;46.894;15.542;2023-03-23T01:22:50;8.60;99.90
11569;DHT22;5840;46.894;15.542;2023-03-23T01:25:18;8.60;99.90
11569;DHT22;5840;46.894;15.542;2023-03-23T01:27:45;8.50;99.90
11569;DHT22;5840;46.894;15.542;2023-03-23T01:30:13;8.50;99.90
11569;DHT22;5840;46.894;15.542;2023-03-23T01:32:41;8.50;99.90
11569;DHT22;5840;46.894;15.542;2023-03-23T01:35:09;8.40;99.90
11569;DHT22;5840;46.894;15.542;2023-03-23T01:37:36;8.40;99.90
11569;DHT22;5840;46.894;15.542;2023-03-23T01:40:03;8.40;99.90
11569;DHT22;5840;46.894;15.542;2023-03-23T01:42:33;8.30;99.90
11569;DHT22;5840;46.894;15.542;2023-03-23T01:45:22;8.30;99.90
11569;DHT22;5840;46.894;15.542;2023-03-23T01:47:53;8.30;99.90
11569;DHT22;5840;46.894;15.542;2023-03-23T01:50:24;8.20;99.90
11569;DHT22;5840;46.894;15.542;2023-03-23T01:52:53;8.20;99.90
11569;DHT22;5840;46.894;15.542;2023-03-23T01:55:22;8.20;99.90
11569;DHT22;5840;46.894;15.542;2023-03-23T01:57:51;8.20;99.90
11569;DHT22;5840;46.894;15.542;2023-03-23T02:00:19;8.20;99.90
11569;DHT22;5840;46.894;15.542;2023-03-23T02:02:48;8.20;99.90
11569;DHT22;5840;46.894;15.542;2023-03-23T02:05:21;8.10;99.90
11569;DHT22;5840;46.894;15.542;2023-03-23T02:07:50;8.00;99.90
11569;DHT22;5840;46.894;15.542;2023-03-23T02:10:18;8.00;99.90
11569;DHT22;5840;46.894;15.542;2023-03-23T02:12:45;8.00;99.90
11569;DHT22;5840;46.894;15.542;2023-03-23T02:15:12;7.90;99.90
11569;DHT22;5840;46.894;15.542;2023-03-23T02:17:44;7.90;99.90
11569;DHT22;5840;46.894;15.542;2023-03-23T02:20:42;7.90;99.90
11569;DHT22;5840;46.894;15.542;2023-03-23T02:23:26;7.90;99.90
11569;DHT22;5840;46.894;15.542;2023-03-23T02:26:07;7.90;99.90
11569;DHT22;5840;46.894;15.542;2023-03-23T02:31:57;7.90;99.90
11569;DHT22;5840;46.894;15.542;2023-03-23T02:34:29;7.90;99.90
11569;DHT22;5840;46.894;15.542;2023-03-23T02:37:01;7.80;99.90
11569;DHT22;5840;46.894;15.542;2023-03-23T02:39:31;7.80;99.90
11569;DHT22;5840;46.894;15.542;2023-03-23T02:42:05;7.80;99.90
11569;DHT22;5840;46.894;15.542;2023-03-23T02:44:33;7.70;99.90
11569;DHT22;5840;46.894;15.542;2023-03-23T02:47:03;7.70;99.90
11569;DHT22;5840;46.894;15.542;2023-03-23T02:49:35;7.70;99.90
11569;DHT22;5840;46.894;15.542;2023-03-23T02:52:07;7.60;99.90
11569;DHT22;5840;46.894;15.542;2023-03-23T02:54:39;7.60;99.90
11569;DHT22;5840;46.894;15.542;2023-03-23T02:57:07;7.60;99.90
11569;DHT22;5840;46.894;15.542;2023-03-23T02:59:34;7.50;99.90
11569;DHT22;5840;46.894;15.542;2023-03-23T03:02:05;7.50;99.90
11569;DHT22;5840;46.894;15.542;2023-03-23T03:04:36;7.50;99.90
11569;DHT22;5840;46.894;15.542;2023-03-23T03:07:27;7.40;99.90
11569;DHT22;5840;46.894;15.542;2023-03-23T03:09:58;7.40;99.90
11569;DHT22;5840;46.894;15.542;2023-03-23T03:12:33;7.40;99.90
11569;DHT22;5840;46.894;15.542;2023-03-23T03:15:10;7.30;99.90
11569;DHT22;5840;46.894;15.542;2023-03-23T03:17:44;7.20;99.90
11569;DHT22;5840;46.894;15.542;2023-03-23T03:20:14;7.20;99.90
11569;DHT22;5840;46.894;15.542;2023-03-23T03:22:43;7.20;99.90
11569;DHT22;5840;46.894;15.542;2023-03-23T03:25:12;7.20;99.90
11569;DHT22;5840;46.894;15.542;2023-03-23T03:27:41;7.20;99.90
11569;DHT22;5840;46.894;15.542;2023-03-23T03:30:13;7.10;99.90
11569;DHT22;5840;46.894;15.542;2023-03-23T03:32:44;7.10;99.90
11569;DHT22;5840;46.894;15.542;2023-03-23T03:35:15;7.10;99.90
11569;DHT22;5840;46.894;15.542;2023-03-23T03:37:43;7.10;99.90
11569;DHT22;5840;46.894;15.542;2023-03-23T03:40:14;7.10;99.90
11569;DHT22;5840;46.894;15.542;2023-03-23T03:42:43;7.10;99.90
11569;DHT22;5840;46.894;15.542;2023-03-23T03:45:12;7.10;99.90
11569;DHT22;5840;46.894;15.542;2023-03-23T03:47:40;7.00;99.90
11569;DHT22;5840;46.894;15.542;2023-03-23T03:50:08;7.00;99.90
11569;DHT22;5840;46.894;15.542;2023-03-23T03:52:36;7.00;99.90
11569;DHT22;5840;46.894;15.542;2023-03-23T03:55:06;7.00;99.90
11569;DHT22;5840;46.894;15.542;2023-03-23T03:57:34;7.00;99.90
11569;DHT22;5840;46.894;15.542;2023-03-23T04:00:01;7.00;99.90
11569;DHT22;5840;46.894;15.542;2023-03-23T04:02:38;6.90;99.90
11569;DHT22;5840;46.894;15.542;2023-03-23T04:05:06;7.00;99.90
11569;DHT22;5840;46.894;15.542;2023-03-23T04:07:36;7.00;99.90
11569;DHT22;5840;46.894;15.542;2023-03-23T04:10:06;7.00;99.90
11569;DHT22;5840;46.894;15.542;2023-03-23T04:12:34;7.00;99.90
11569;DHT22;5840;46.894;15.542;2023-03-23T04:15:01;7.00;99.90
11569;DHT22;5840;46.894;15.542;2023-03-23T04:17:28;7.00;99.90
11569;DHT22;5840;46.894;15.542;2023-03-23T04:19:55;7.00;99.90
11569;DHT22;5840;46.894;15.542;2023-03-23T04:22:25;6.90;99.90
11569;DHT22;5840;46.894;15.542;2023-03-23T04:24:58;6.90;99.90
11569;DHT22;5840;46.894;15.542;2023-03-23T04:27:26;6.90;99.90
11569;DHT22;5840;46.894;15.542;2023-03-23T04:29:55;6.90;99.90
11569;DHT22;5840;46.894;15.542;2023-03-23T04:32:24;6.90;99.90
11569;DHT22;5840;46.894;15.542;2023-03-23T04:34:55;6.90;99.90
11569;DHT22;5840;46.894;15.542;2023-03-23T04:37:23;6.80;99.90
11569;DHT22;5840;46.894;15.542;2023-03-23T04:39:55;6.90;99.90
11569;DHT22;5840;46.894;15.542;2023-03-23T04:42:27;6.80;99.90
11569;DHT22;5840;46.894;15.542;2023-03-23T04:44:55;6.80;99.90
11569;DHT22;5840;46.894;15.542;2023-03-23T04:47:23;6.80;99.90
11569;DHT22;5840;46.894;15.542;2023-03-23T04:49:51;6.80;99.90
11569;DHT22;5840;46.894;15.542;2023-03-23T04:52:18;6.70;99.90
11569;DHT22;5840;46.894;15.542;2023-03-23T04:54:46;6.70;99.90
11569;DHT22;5840;46.894;15.542;2023-03-23T04:57:13;6.70;99.90
11569;DHT22;5840;46.894;15.542;2023-03-23T04:59:43;6.70;99.90
11569;DHT22;5840;46.894;15.542;2023-03-23T05:02:10;6.80;99.90
11569;DHT22;5840;46.894;15.542;2023-03-23T05:04:38;6.80;99.90
11569;DHT22;5840;46.894;15.542;2023-03-23T05:07:06;6.80;99.90
11569;DHT22;5840;46.894;15.542;2023-03-23T05:09:33;6.80;99.90
11569;DHT22;5840;46.894;15.542;2023-03-23T05:12:04;6.80;99.90
11569;DHT22;5840;46.894;15.542;2023-03-23T05:14:31;6.80;99.90
11569;DHT22;5840;46.894;15.542;2023-03-23T05:17:00;6.80;99.90
11569;DHT22;5840;46.894;15.542;2023-03-23T05:19:27;6.80;99.90
11569;DHT22;5840;46.894;15.542;2023-03-23T05:21:56;6.80;99.90
11569;DHT22;5840;46.894;15.542;2023-03-23T05:24:28;6.80;99.90
11569;DHT22;5840;46.894;15.542;2023-03-23T05:26:57;6.80;99.90
11569;DHT22;5840;46.894;15.542;2023-03-23T05:29:24;6.90;99.90
11569;DHT22;5840;46.894;15.542;2023-03-23T05:31:51;6.90;99.90
11569;DHT22;5840;46.894;15.542;2023-03-23T05:34:22;6.90;99.90
11569;DHT22;5840;46.894;15.542;2023-03-23T05:36:52;7.00;99.90
11569;DHT22;5840;46.894;15.542;2023-03-23T05:39:21;7.00;99.90
11569;DHT22;5840;46.894;15.542;2023-03-23T05:41:48;7.00;99.90
11569;DHT22;5840;46.894;15.542;2023-03-23T05:44:15;7.00;99.90
11569;DHT22;5840;46.894;15.542;2023-03-23T05:46:42;6.90;99.90
11569;DHT22;5840;46.894;15.542;2023-03-23T05:49:09;6.90;99.90
11569;DHT22;5840;46.894;15.542;2023-03-23T05:51:37;6.90;99.90
11569;DHT22;5840;46.894;15.542;2023-03-23T05:54:05;7.00;99.90
11569;DHT22;5840;46.894;15.542;2023-03-23T05:56:32;7.00;99.90
11569;DHT22;5840;46.894;15.542;2023-03-23T05:58:59;7.10;99.90
11569;DHT22;5840;46.894;15.542;2023-03-23T06:01:26;7.10;99.90
11569;DHT22;5840;46.894;15.542;2023-03-23T06:03:53;7.20;99.90
11569;DHT22;5840;46.894;15.542;2023-03-23T06:06:24;7.20;99.90
11569;DHT22;5840;46.894;15.542;2023-03-23T06:08:52;7.20;99.90
11569;DHT22;5840;46.894;15.542;2023-03-23T06:11:19;7.30;99.90
11569;DHT22;5840;46.894;15.542;2023-03-23T06:13:47;7.30;99.90
11569;DHT22;5840;46.894;15.542;2023-03-23T06:16:14;7.30;99.90
11569;DHT22;5840;46.894;15.542;2023-03-23T06:18:41;7.40;99.90
11569;DHT22;5840;46.894;15.542;2023-03-23T06:21:09;7.70;99.90
11569;DHT22;5840;46.894;15.542;2023-03-23T06:23:36;7.70;99.90
11569;DHT22;5840;46.894;15.542;2023-03-23T06:26:07;7.80;99.90
11569;DHT22;5840;46.894;15.542;2023-03-23T06:28:35;7.90;99.90
11569;DHT22;5840;46.894;15.542;2023-03-23T06:31:04;8.00;99.90
11569;DHT22;5840;46.894;15.542;2023-03-23T06:33:33;8.10;99.90
11569;DHT22;5840;46.894;15.542;2023-03-23T06:36:01;8.10;99.90
11569;DHT22;5840;46.894;15.542;2023-03-23T06:38:29;8.20;99.90
11569;DHT22;5840;46.894;15.542;2023-03-23T06:40:56;8.30;99.90
11569;DHT22;5840;46.894;15.542;2023-03-23T06:43:24;8.40;99.90
11569;DHT22;5840;46.894;15.542;2023-03-23T06:45:52;8.50;99.90
11569;DHT22;5840;46.894;15.542;2023-03-23T06:48:19;8.60;99.90
11569;DHT22;5840;46.894;15.542;2023-03-23T06:50:46;8.60;99.90
11569;DHT22;5840;46.894;15.542;2023-03-23T06:53:13;8.70;99.90
11569;DHT22;5840;46.894;15.542;2023-03-23T06:55:43;8.80;99.90
11569;DHT22;5840;46.894;15.542;2023-03-23T06:58:10;8.90;99.90
11569;DHT22;5840;46.894;15.542;2023-03-23T07:00:39;9.00;99.90
11569;DHT22;5840;46.894;15.542;2023-03-23T07:03:06;9.00;99.90
11569;DHT22;5840;46.894;15.542;2023-03-23T07:05:34;9.10;99.90
11569;DHT22;5840;46.894;15.542;2023-03-23T07:08:01;9.20;99.90
11569;DHT22;5840;46.894;15.542;2023-03-23T07:10:29;9.30;99.90
11569;DHT22;5840;46.894;15.542;2023-03-23T07:12:57;9.40;99.90
11569;DHT22;5840;46.894;15.542;2023-03-23T07:15:24;9.50;99.90
11569;DHT22;5840;46.894;15.542;2023-03-23T07:17:53;9.70;99.90
11569;DHT22;5840;46.894;15.542;2023-03-23T07:20:21;9.90;99.90
11569;DHT22;5840;46.894;15.542;2023-03-23T07:22:48;10.10;99.90
11569;DHT22;5840;46.894;15.542;2023-03-23T07:25:15;10.30;99.90
11569;DHT22;5840;46.894;15.542;2023-03-23T07:27:44;10.50;99.90
11569;DHT22;5840;46.894;15.542;2023-03-23T07:30:12;10.80;99.90
11569;DHT22;5840;46.894;15.542;2023-03-23T07:32:40;11.00;99.90
11569;DHT22;5840;46.894;15.542;2023-03-23T07:35:09;11.10;99.90
11569;DHT22;5840;46.894;15.542;2023-03-23T07:37:36;11.30;99.90
11569;DHT22;5840;46.894;15.542;2023-03-23T07:40:04;11.40;99.90
11569;DHT22;5840;46.894;15.542;2023-03-23T07:42:40;11.60;99.90
11569;DHT22;5840;46.894;15.542;2023-03-23T07:45:08;11.70;99.90
11569;DHT22;5840;46.894;15.542;2023-03-23T07:47:36;11.90;99.90
11569;DHT22;5840;46.894;15.542;2023-03-23T07:50:04;12.20;99.90
11569;DHT22;5840;46.894;15.542;2023-03-23T07:52:33;12.50;99.90
11569;DHT22;5840;46.894;15.542;2023-03-23T07:55:01;12.80;99.90
11569;DHT22;5840;46.894;15.542;2023-03-23T07:57:28;13.20;99.90
11569;DHT22;5840;46.894;15.542;2023-03-23T07:59:56;13.40;99.90
11569;DHT22;5840;46.894;15.542;2023-03-23T08:02:24;13.70;99.90
11569;DHT22;5840;46.894;15.542;2023-03-23T08:04:52;13.90;99.90
11569;DHT22;5840;46.894;15.542;2023-03-23T08:07:19;14.30;99.90
11569;DHT22;5840;46.894;15.542;2023-03-23T08:09:48;14.40;99.90
11569;DHT22;5840;46.894;15.542;2023-03-23T08:12:15;14.30;99.90
11569;DHT22;5840;46.894;15.542;2023-03-23T08:14:42;14.30;99.90
11569;DHT22;5840;46.894;15.542;2023-03-23T08:17:09;14.30;99.90
11569;DHT22;5840;46.894;15.542;2023-03-23T08:19:36;14.40;99.90
11569;DHT22;5840;46.894;15.542;2023-03-23T08:22:03;14.50;99.90
11569;DHT22;5840;46.894;15.542;2023-03-23T08:24:31;14.50;99.90
11569;DHT22;5840;46.894;15.542;2023-03-23T08:26:59;14.60;99.90
11569;DHT22;5840;46.894;15.542;2023-03-23T08:29:26;14.60;99.90
11569;DHT22;5840;46.894;15.542;2023-03-23T08:31:54;14.50;99.40
11569;DHT22;5840;46.894;15.542;2023-03-23T08:34:21;14.50;99.50
11569;DHT22;5840;46.894;15.542;2023-03-23T08:36:48;14.50;99.00
11569;DHT22;5840;46.894;15.542;2023-03-23T08:39:17;14.50;98.40
11569;DHT22;5840;46.894;15.542;2023-03-23T08:41:44;14.50;99.10
11569;DHT22;5840;46.894;15.542;2023-03-23T08:44:13;14.50;98.60
11569;DHT22;5840;46.894;15.542;2023-03-23T08:46:41;14.60;98.70
11569;DHT22;5840;46.894;15.542;2023-03-23T08:49:08;14.60;98.00
11569;DHT22;5840;46.894;15.542;2023-03-23T08:51:35;14.70;97.50
11569;DHT22;5840;46.894;15.542;2023-03-23T08:54:02;14.70;96.90
11569;DHT22;5840;46.894;15.542;2023-03-23T08:56:29;14.80;96.10
11569;DHT22;5840;46.894;15.542;2023-03-23T08:58:56;14.90;96.60
11569;DHT22;5840;46.894;15.542;2023-03-23T09:01:25;15.10;97.10
11569;DHT22;5840;46.894;15.542;2023-03-23T09:03:52;15.30;96.50
11569;DHT22;5840;46.894;15.542;2023-03-23T09:06:19;15.40;97.00
11569;DHT22;5840;46.894;15.542;2023-03-23T09:08:46;15.50;96.50
11569;DHT22;5840;46.894;15.542;2023-03-23T09:11:14;15.60;96.30
11569;DHT22;5840;46.894;15.542;2023-03-23T09:13:41;15.80;97.10
11569;DHT22;5840;46.894;15.542;2023-03-23T09:16:08;15.90;97.20
11569;DHT22;5840;46.894;15.542;2023-03-23T09:18:37;16.00;96.90
11569;DHT22;5840;46.894;15.542;2023-03-23T09:21:04;16.10;97.50
11569;DHT22;5840;46.894;15.542;2023-03-23T09:23:32;16.10;97.10
11569;DHT22;5840;46.894;15.542;2023-03-23T09:26:00;16.40;97.30
11569;DHT22;5840;46.894;15.542;2023-03-23T09:28:27;16.50;97.50
11569;DHT22;5840;46.894;15.542;2023-03-23T09:30:55;16.70;95.20
11569;DHT22;5840;46.894;15.542;2023-03-23T09:33:23;16.80;95.40
11569;DHT22;5840;46.894;15.542;2023-03-23T09:35:52;17.10;96.60
11569;DHT22;5840;46.894;15.542;2023-03-23T09:38:19;17.30;93.80
11569;DHT22;5840;46.894;15.542;2023-03-23T09:40:51;17.40;93.70
11569;DHT22;5840;46.894;15.542;2023-03-23T09:43:31;17.50;94.00
11569;DHT22;5840;46.894;15.542;2023-03-23T09:46:24;17.60;93.40
11569;DHT22;5840;46.894;15.542;2023-03-23T09:48:54;17.70;94.20
11569;DHT22;5840;46.894;15.542;2023-03-23T09:51:36;17.90;94.90
11569;DHT22;5840;46.894;15.542;2023-03-23T09:54:12;17.90;94.70
11569;DHT22;5840;46.894;15.542;2023-03-23T09:56:41;18.00;94.10
11569;DHT22;5840;46.894;15.542;2023-03-23T09:59:15;18.00;92.60
11569;DHT22;5840;46.894;15.542;2023-03-23T10:01:45;17.90;92.80
11569;DHT22;5840;46.894;15.542;2023-03-23T10:04:21;17.90;92.80
11569;DHT22;5840;46.894;15.542;2023-03-23T10:06:52;18.10;94.00
11569;DHT22;5840;46.894;15.542;2023-03-23T10:09:20;18.40;92.50
11569;DHT22;5840;46.894;15.542;2023-03-23T10:11:56;18.60;92.50
11569;DHT22;5840;46.894;15.542;2023-03-23T10:14:37;19.00;91.20
11569;DHT22;5840;46.894;15.542;2023-03-23T10:17:12;19.60;92.70
11569;DHT22;5840;46.894;15.542;2023-03-23T10:19:46;19.90;91.50
11569;DHT22;5840;46.894;15.542;2023-03-23T10:22:20;20.20;91.30
11569;DHT22;5840;46.894;15.542;2023-03-23T10:24:51;20.20;90.10
11569;DHT22;5840;46.894;15.542;2023-03-23T10:27:26;20.00;90.60
11569;DHT22;5840;46.894;15.542;2023-03-23T10:29:58;19.70;89.00
11569;DHT22;5840;46.894;15.542;2023-03-23T10:32:40;19.50;88.00
11569;DHT22;5840;46.894;15.542;2023-03-23T10:35:13;19.30;89.50
11569;DHT22;5840;46.894;15.542;2023-03-23T10:37:46;19.00;89.50
11569;DHT22;5840;46.894;15.542;2023-03-23T10:40:16;18.70;89.70
11569;DHT22;5840;46.894;15.542;2023-03-23T10:42:45;18.60;90.40
11569;DHT22;5840;46.894;15.542;2023-03-23T10:45:18;18.50;91.30
11569;DHT22;5840;46.894;15.542;2023-03-23T10:47:51;18.40;91.60
11569;DHT22;5840;46.894;15.542;2023-03-23T10:50:23;18.40;91.60
11569;DHT22;5840;46.894;15.542;2023-03-23T10:52:55;18.60;91.10
11569;DHT22;5840;46.894;15.542;2023-03-23T10:55:24;18.90;90.40
11569;DHT22;5840;46.894;15.542;2023-03-23T10:58:00;19.30;90.10
11569;DHT22;5840;46.894;15.542;2023-03-23T11:00:28;19.50;87.90
11569;DHT22;5840;46.894;15.542;2023-03-23T11:03:01;19.90;90.20
11569;DHT22;5840;46.894;15.542;2023-03-23T11:05:35;20.20;85.90
11569;DHT22;5840;46.894;15.542;2023-03-23T11:08:11;20.60;85.10
11569;DHT22;5840;46.894;15.542;2023-03-23T11:10:40;20.80;85.60
11569;DHT22;5840;46.894;15.542;2023-03-23T11:13:12;21.00;83.80
11569;DHT22;5840;46.894;15.542;2023-03-23T11:15:41;21.20;84.60
11569;DHT22;5840;46.894;15.542;2023-03-23T11:18:12;21.40;82.90
11569;DHT22;5840;46.894;15.542;2023-03-23T11:20:41;21.60;82.10
11569;DHT22;5840;46.894;15.542;2023-03-23T11:23:20;21.70;80.50
11569;DHT22;5840;46.894;15.542;2023-03-23T11:25:59;21.90;82.70
11569;DHT22;5840;46.894;15.542;2023-03-23T11:28:30;22.20;78.40
11569;DHT22;5840;46.894;15.542;2023-03-23T11:30:59;22.10;75.70
11569;DHT22;5840;46.894;15.542;2023-03-23T11:33:29;22.10;76.70
11569;DHT22;5840;46.894;15.542;2023-03-23T11:35:57;22.00;76.30
11569;DHT22;5840;46.894;15.542;2023-03-23T11:38:25;21.90;76.90
11569;DHT22;5840;46.894;15.542;2023-03-23T11:40:54;21.90;78.70
11569;DHT22;5840;46.894;15.542;2023-03-23T11:43:22;22.10;79.40
11569;DHT22;5840;46.894;15.542;2023-03-23T11:45:56;22.30;77.90
11569;DHT22;5840;46.894;15.542;2023-03-23T11:48:30;22.10;75.30
11569;DHT22;5840;46.894;15.542;2023-03-23T11:51:03;21.90;75.60
11569;DHT22;5840;46.894;15.542;2023-03-23T11:53:43;21.70;77.20
11569;DHT22;5840;46.894;15.542;2023-03-23T11:56:19;21.50;77.10
11569;DHT22;5840;46.894;15.542;2023-03-23T11:58:49;21.30;79.00
11569;DHT22;5840;46.894;15.542;2023-03-23T12:01:29;21.30;78.20
11569;DHT22;5840;46.894;15.542;2023-03-23T12:06:57;22.00;77.40
11569;DHT22;5840;46.894;15.542;2023-03-23T12:09:39;22.20;72.30
11569;DHT22;5840;46.894;15.542;2023-03-23T12:12:14;22.60;72.50
11569;DHT22;5840;46.894;15.542;2023-03-23T12:14:53;22.90;74.20
11569;DHT22;5840;46.894;15.542;2023-03-23T12:17:30;23.00;68.90
11569;DHT22;5840;46.894;15.542;2023-03-23T12:20:10;22.90;70.80
11569;DHT22;5840;46.894;15.542;2023-03-23T12:23:03;22.90;71.50
11569;DHT22;5840;46.894;15.542;2023-03-23T12:28:35;22.80;71.10
11569;DHT22;5840;46.894;15.542;2023-03-23T12:31:11;22.70;70.60
11569;DHT22;5840;46.894;15.542;2023-03-23T12:33:49;22.80;69.50
11569;DHT22;5840;46.894;15.542;2023-03-23T12:36:28;23.10;69.60
11569;DHT22;5840;46.894;15.542;2023-03-23T12:39:29;23.30;68.40
11569;DHT22;5840;46.894;15.542;2023-03-23T12:42:05;23.40;68.20
11569;DHT22;5840;46.894;15.542;2023-03-23T12:44:41;23.50;66.10
11569;DHT22;5840;46.894;15.542;2023-03-23T12:47:29;23.50;66.60
11569;DHT22;5840;46.894;15.542;2023-03-23T12:50:00;23.60;70.00
11569;DHT22;5840;46.894;15.542;2023-03-23T12:52:35;23.80;72.80
11569;DHT22;5840;46.894;15.542;2023-03-23T12:55:09;24.20;72.10
11569;DHT22;5840;46.894;15.542;2023-03-23T12:57:45;24.40;71.50
11569;DHT22;5840;46.894;15.542;2023-03-23T13:00:19;24.20;67.70
11569;DHT22;5840;46.894;15.542;2023-03-23T13:02:52;24.20;68.20
11569;DHT22;5840;46.894;15.542;2023-03-23T13:05:32;24.00;66.90
11569;DHT22;5840;46.894;15.542;2023-03-23T13:08:02;24.20;66.60
11569;DHT22;5840;46.894;15.542;2023-03-23T13:10:34;24.30;70.00
11569;DHT22;5840;46.894;15.542;2023-03-23T13:13:04;24.30;68.10
11569;DHT22;5840;46.894;15.542;2023-03-23T13:15:37;24.30;67.30
11569;DHT22;5840;46.894;15.542;2023-03-23T13:18:13;24.30;68.70
11569;DHT22;5840;46.894;15.542;2023-03-23T13:21:02;24.30;66.80
11569;DHT22;5840;46.894;15.542;2023-03-23T13:23:36;24.50;68.40
11569;DHT22;5840;46.894;15.542;2023-03-23T13:26:07;24.30;67.80
11569;DHT22;5840;46.894;15.542;2023-03-23T13:28:50;24.00;67.20
11569;DHT22;5840;46.894;15.542;2023-03-23T13:31:21;24.00;69.10
11569;DHT22;5840;46.894;15.542;2023-03-23T13:33:52;24.00;69.90
11569;DHT22;5840;46.894;15.542;2023-03-23T13:36:27;24.00;68.50
11569;DHT22;5840;46.894;15.542;2023-03-23T13:38:55;23.70;68.90
11569;DHT22;5840;46.894;15.542;2023-03-23T13:41:23;23.40;69.20
11569;DHT22;5840;46.894;15.542;2023-03-23T13:43:51;23.20;69.90
11569;DHT22;5840;46.894;15.542;2023-03-23T13:46:28;22.90;69.40
11569;DHT22;5840;46.894;15.542;2023-03-23T13:49:17;22.60;72.80
11569;DHT22;5840;46.894;15.542;2023-03-23T13:52:14;22.60;71.50
11569;DHT22;5840;46.894;15.542;2023-03-23T13:54:44;22.50;71.50
11569;DHT22;5840;46.894;15.542;2023-03-23T13:57:25;22.40;71.50
11569;DHT22;5840;46.894;15.542;2023-03-23T14:00:04;22.40;72.20
11569;DHT22;5840;46.894;15.542;2023-03-23T14:02:40;22.40;72.80
11569;DHT22;5840;46.894;15.542;2023-03-23T14:05:31;22.60;73.80
11569;DHT22;5840;46.894;15.542;2023-03-23T14:08:00;22.70;73.60
11569;DHT22;5840;46.894;15.542;2023-03-23T14:10:35;22.60;73.20
11569;DHT22;5840;46.894;15.542;2023-03-23T14:13:03;22.70;73.70
11569;DHT22;5840;46.894;15.542;2023-03-23T14:15:42;22.90;74.80
11569;DHT22;5840;46.894;15.542;2023-03-23T14:18:15;22.90;74.20
11569;DHT22;5840;46.894;15.542;2023-03-23T14:20:45;23.10;72.80
11569;DHT22;5840;46.894;15.542;2023-03-23T14:23:16;23.10;72.90
11569;DHT22;5840;46.894;15.542;2023-03-23T14:25:44;23.20;75.10
11569;DHT22;5840;46.894;15.542;2023-03-23T14:28:18;23.30;73.10
11569;DHT22;5840;46.894;15.542;2023-03-23T14:30:51;23.40;73.10
11569;DHT22;5840;46.894;15.542;2023-03-23T14:33:19;23.30;73.90
11569;DHT22;5840;46.894;15.542;2023-03-23T14:35:47;23.30;73.40
11569;DHT22;5840;46.894;15.542;2023-03-23T14:38:16;23.30;73.70
11569;DHT22;5840;46.894;15.542;2023-03-23T14:40:46;23.30;72.30
11569;DHT22;5840;46.894;15.542;2023-03-23T14:43:15;23.30;73.50
11569;DHT22;5840;46.894;15.542;2023-03-23T14:45:43;23.20;73.80
11569;DHT22;5840;46.894;15.542;2023-03-23T14:48:14;23.00;74.10
11569;DHT22;5840;46.894;15.542;2023-03-23T14:50:48;22.70;74.50
11569;DHT22;5840;46.894;15.542;2023-03-23T14:53:19;22.50;75.50
11569;DHT22;5840;46.894;15.542;2023-03-23T14:55:47;22.30;76.10
11569;DHT22;5840;46.894;15.542;2023-03-23T14:58:16;22.30;75.90
11569;DHT22;5840;46.894;15.542;2023-03-23T15:00:46;22.30;76.40
11569;DHT22;5840;46.894;15.542;2023-03-23T15:03:17;22.40;77.00
11569;DHT22;5840;46.894;15.542;2023-03-23T15:05:47;22.50;79.00
11569;DHT22;5840;46.894;15.542;2023-03-23T15:08:19;22.40;75.70
11569;DHT22;5840;46.894;15.542;2023-03-23T15:10:55;22.50;75.00
11569;DHT22;5840;46.894;15.542;2023-03-23T15:13:22;22.40;74.90
11569;DHT22;5840;46.894;15.542;2023-03-23T15:15:49;22.40;75.10
11569;DHT22;5840;46.894;15.542;2023-03-23T15:18:35;22.40;75.70
11569;DHT22;5840;46.894;15.542;2023-03-23T15:21:12;22.50;76.60
11569;DHT22;5840;46.894;15.542;2023-03-23T15:23:46;22.50;76.50
11569;DHT22;5840;46.894;15.542;2023-03-23T15:26:29;22.40;76.10
11569;DHT22;5840;46.894;15.542;2023-03-23T15:29:10;22.30;77.30
11569;DHT22;5840;46.894;15.542;2023-03-23T15:31:41;22.30;75.80
11569;DHT22;5840;46.894;15.542;2023-03-23T15:34:16;22.10;76.40
11569;DHT22;5840;46.894;15.542;2023-03-23T15:36:43;21.90;78.50
11569;DHT22;5840;46.894;15.542;2023-03-23T15:39:12;21.80;77.60
11569;DHT22;5840;46.894;15.542;2023-03-23T15:41:47;21.70;79.70
11569;DHT22;5840;46.894;15.542;2023-03-23T15:44:28;21.70;77.30
11569;DHT22;5840;46.894;15.542;2023-03-23T15:47:13;21.70;77.20
11569;DHT22;5840;46.894;15.542;2023-03-23T15:49:43;21.70;77.00
11569;DHT22;5840;46.894;15.542;2023-03-23T15:52:11;21.60;78.10
11569;DHT22;5840;46.894;15.542;2023-03-23T15:54:45;21.60;77.80
11569;DHT22;5840;46.894;15.542;2023-03-23T15:57:12;21.50;79.80
11569;DHT22;5840;46.894;15.542;2023-03-23T15:59:39;21.40;80.60
11569;DHT22;5840;46.894;15.542;2023-03-23T16:02:19;21.20;80.80
11569;DHT22;5840;46.894;15.542;2023-03-23T16:04:49;21.10;80.60
11569;DHT22;5840;46.894;15.542;2023-03-23T16:07:20;21.00;81.00
11569;DHT22;5840;46.894;15.542;2023-03-23T16:09:47;20.90;81.70